createdAt,value
2022-11-26T00:01:00.752Z,33.58
2022-11-26T00:02:25.227Z,32.65
2022-11-26T00:03:47.990Z,33.90
2022-11-26T00:05:12.079Z,32.72
2022-11-26T00:06:37.544Z,32.35
2022-11-26T00:08:00.915Z,33.55
2022-11-26T00:09:26.502Z,32.15
2022-11-26T00:10:52.735Z,32.95
2022-11-26T00:12:17.975Z,32.08
2022-11-26T00:13:39.931Z,34.67
2022-11-26T00:16:23.073Z,34.45
2022-11-26T00:17:44.351Z,34.10
2022-11-26T00:19:06.534Z,34.55
2022-11-26T00:20:31.746Z,32.40
2022-11-26T00:21:53.842Z,32.90
2022-11-26T00:23:21.843Z,34.50
2022-11-26T00:24:45.412Z,32.53
2022-11-26T00:26:14.960Z,33.65
2022-11-26T00:27:36.103Z,33.95
2022-11-26T00:29:00.353Z,35.42
2022-11-26T00:30:25.313Z,35.08
2022-11-26T00:31:46.475Z,34.90
2022-11-26T00:33:09.354Z,33.83
2022-11-26T00:34:30.718Z,32.63
2022-11-26T00:35:55.409Z,34.13
2022-11-26T00:37:22.020Z,33.72
2022-11-26T00:38:45.125Z,35.42
2022-11-26T00:40:18.974Z,33.70
2022-11-26T00:41:41.278Z,32.85
2022-11-26T00:43:03.634Z,34.45
2022-11-26T00:44:26.863Z,34.03
2022-11-26T00:45:53.166Z,32.85
2022-11-26T00:47:14.567Z,34.80
2022-11-26T00:48:36.644Z,34.00
2022-11-26T00:51:21.965Z,32.05
2022-11-26T00:52:43.680Z,33.78
2022-11-26T00:54:07.802Z,35.25
2022-11-26T00:55:33.933Z,33.50
2022-11-26T00:56:56.417Z,33.10
2022-11-26T00:58:23.649Z,31.45
2022-11-26T00:59:45.734Z,31.77
2022-11-26T01:01:08.481Z,33.88
2022-11-26T01:02:30.683Z,32.55
2022-11-26T01:03:53.688Z,32.20
2022-11-26T01:05:14.806Z,31.95
2022-11-26T01:06:40.263Z,31.50
2022-11-26T01:08:11.545Z,30.90
2022-11-26T01:09:34.488Z,31.25
2022-11-26T01:10:57.542Z,32.67
2022-11-26T01:12:19.756Z,33.13
2022-11-26T01:15:02.790Z,33.42
2022-11-26T01:16:27.716Z,32.17
2022-11-26T01:17:50.133Z,33.72
2022-11-26T01:19:15.964Z,34.45
2022-11-26T01:20:37.346Z,32.70
2022-11-26T01:21:59.430Z,34.65
2022-11-26T01:23:20.934Z,35.08
2022-11-26T01:24:43.254Z,35.55
2022-11-26T01:26:07.340Z,34.03
2022-11-26T01:27:31.141Z,34.72
2022-11-26T01:28:54.622Z,35.10
2022-11-26T01:30:20.506Z,34.42
2022-11-26T01:31:42.744Z,33.45
2022-11-26T01:33:03.613Z,35.42
2022-11-26T01:34:25.765Z,33.95
2022-11-26T01:37:16.771Z,32.70
2022-11-26T01:38:38.951Z,36.33
2022-11-26T01:40:00.535Z,34.88
2022-11-26T01:41:38.504Z,35.00
2022-11-26T01:43:08.689Z,33.80
2022-11-26T01:44:33.751Z,33.00
2022-11-26T01:45:57.139Z,32.92
2022-11-26T01:47:26.394Z,34.83
2022-11-26T01:48:50.658Z,34.05
2022-11-26T01:50:45.430Z,34.72
2022-11-26T01:52:15.645Z,32.97
2022-11-26T01:53:42.560Z,33.05
2022-11-26T01:55:05.563Z,36.03
2022-11-26T01:56:33.928Z,34.47
2022-11-26T01:57:54.783Z,33.85
2022-11-26T01:59:24.732Z,32.23
2022-11-26T02:00:46.860Z,33.28
2022-11-26T02:02:09.156Z,33.63
2022-11-26T02:03:35.001Z,32.53
2022-11-26T02:05:08.138Z,32.03
2022-11-26T02:06:33.926Z,31.45
2022-11-26T02:07:58.418Z,33.15
2022-11-26T02:09:20.742Z,33.50
2022-11-26T02:10:41.856Z,33.33
2022-11-26T02:12:05.862Z,34.15
2022-11-26T02:13:30.128Z,33.33
2022-11-26T02:14:56.050Z,31.98
2022-11-26T02:16:27.564Z,31.90
2022-11-26T02:17:54.937Z,32.55
2022-11-26T02:19:43.455Z,31.67
2022-11-26T02:21:10.344Z,31.75
2022-11-26T02:22:51.112Z,31.60
2022-11-26T02:24:40.201Z,31.35
2022-11-26T02:26:41.642Z,29.00
2022-11-26T02:28:34.594Z,29.58
2022-11-26T02:30:06.147Z,30.13
2022-11-26T02:31:35.190Z,31.75
2022-11-26T02:33:02.134Z,28.17
2022-11-26T02:34:37.163Z,29.30
2022-11-26T02:36:03.972Z,29.83
2022-11-26T02:37:33.211Z,30.10
2022-11-26T02:38:55.844Z,28.98
2022-11-26T02:40:21.512Z,26.52
2022-11-26T02:41:49.016Z,28.48
2022-11-26T02:43:11.999Z,27.58
2022-11-26T02:44:41.685Z,29.25
2022-11-26T02:46:11.419Z,28.95
2022-11-26T02:47:34.961Z,28.00
2022-11-26T02:48:59.226Z,27.88
2022-11-26T02:50:27.121Z,28.20
2022-11-26T02:51:51.949Z,28.88
2022-11-26T02:53:17.009Z,27.27
2022-11-26T02:54:40.274Z,27.83
2022-11-26T02:56:06.758Z,27.42
2022-11-26T02:57:35.706Z,28.10
2022-11-26T02:58:59.692Z,28.58
2022-11-26T03:00:21.456Z,27.17
2022-11-26T03:01:52.593Z,30.02
2022-11-26T03:03:28.360Z,27.20
2022-11-26T03:04:53.663Z,28.92
2022-11-26T03:06:18.841Z,29.60
2022-11-26T03:07:42.409Z,29.95
2022-11-26T03:09:11.624Z,29.92
2022-11-26T03:10:38.655Z,28.85
2022-11-26T03:12:01.598Z,29.02
2022-11-26T03:13:27.924Z,29.20
2022-11-26T03:14:50.567Z,31.83
2022-11-26T03:16:14.920Z,30.13
2022-11-26T03:17:37.692Z,31.25
2022-11-26T03:19:00.180Z,30.27
2022-11-26T03:20:24.656Z,31.15
2022-11-26T03:21:48.717Z,31.48
2022-11-26T03:23:13.958Z,31.67
2022-11-26T03:24:35.394Z,31.33
2022-11-26T03:25:59.055Z,31.10
2022-11-26T03:27:20.516Z,32.33
2022-11-26T03:28:42.641Z,31.27
2022-11-26T03:31:25.994Z,32.85
2022-11-26T03:32:49.949Z,32.92
2022-11-26T03:34:10.971Z,31.65
2022-11-26T03:35:40.775Z,30.30
2022-11-26T03:37:01.923Z,30.33
2022-11-26T03:38:24.402Z,32.90
2022-11-26T03:39:45.957Z,30.10
2022-11-26T03:41:08.401Z,31.08
2022-11-26T03:42:29.577Z,32.97
2022-11-26T03:43:52.026Z,30.05
2022-11-26T03:45:13.176Z,32.38
2022-11-26T03:46:35.728Z,30.60
2022-11-26T03:47:59.500Z,29.90
2022-11-26T03:49:21.731Z,30.77
2022-11-26T03:52:07.140Z,30.30
2022-11-26T03:53:29.375Z,30.77
2022-11-26T03:56:12.637Z,29.50
2022-11-26T03:57:34.869Z,31.20
2022-11-26T03:58:57.203Z,29.73
2022-11-26T04:00:19.344Z,31.80
2022-11-26T04:03:05.695Z,29.20
2022-11-26T04:04:27.930Z,30.65
2022-11-26T04:07:11.013Z,28.63
2022-11-26T04:08:32.713Z,31.65
2022-11-26T04:09:55.256Z,30.38
2022-11-26T04:11:16.639Z,33.15
2022-11-26T04:12:41.086Z,31.90
2022-11-26T04:14:02.297Z,30.08
2022-11-26T04:15:24.343Z,31.75
2022-11-26T04:18:09.128Z,31.17
2022-11-26T04:19:31.859Z,30.88
2022-11-26T04:20:53.596Z,30.42
2022-11-26T04:22:16.656Z,30.50
2022-11-26T04:23:38.453Z,31.55
2022-11-26T04:25:00.877Z,29.45
2022-11-26T04:27:46.171Z,27.42
2022-11-26T04:29:08.583Z,31.02
2022-11-26T04:30:32.955Z,30.90
2022-11-26T04:31:55.531Z,30.80
2022-11-26T04:33:18.410Z,28.10
2022-11-26T04:34:40.937Z,29.17
2022-11-26T04:36:03.410Z,28.92
2022-11-26T04:37:26.950Z,29.90
2022-11-26T04:38:51.020Z,28.35
2022-11-26T04:40:13.333Z,28.88
2022-11-26T04:41:35.652Z,28.55
2022-11-26T04:42:59.330Z,27.75
2022-11-26T04:44:21.834Z,29.10
2022-11-26T04:45:46.314Z,29.02
2022-11-26T04:47:08.493Z,25.95
2022-11-26T04:48:32.139Z,27.25
2022-11-26T04:49:56.119Z,25.13
2022-11-26T04:51:18.171Z,25.70
2022-11-26T04:52:40.339Z,26.95
2022-11-26T04:54:03.433Z,24.73
2022-11-26T04:55:26.507Z,25.23
2022-11-26T04:56:48.914Z,26.73
2022-11-26T04:58:09.828Z,24.67
2022-11-26T04:59:32.044Z,24.10
2022-11-26T05:00:54.528Z,26.38
2022-11-26T05:03:38.425Z,22.73
2022-11-26T05:05:00.427Z,23.88
2022-11-26T05:07:44.152Z,22.45
2022-11-26T05:09:09.787Z,23.63
2022-11-26T05:10:30.801Z,23.35
2022-11-26T05:11:52.661Z,23.90
2022-11-26T05:13:13.769Z,23.10
2022-11-26T05:14:35.959Z,25.23
2022-11-26T05:15:57.390Z,22.65
2022-11-26T05:17:19.669Z,22.60
2022-11-26T05:18:43.032Z,25.08
2022-11-26T05:20:05.327Z,23.60
2022-11-26T05:21:27.077Z,22.42
2022-11-26T05:22:49.297Z,23.23
2022-11-26T05:24:10.491Z,21.83
2022-11-26T05:25:32.679Z,21.23
2022-11-26T05:26:56.953Z,21.27
2022-11-26T05:28:19.462Z,22.17
2022-11-26T05:31:05.336Z,19.45
2022-11-26T05:32:26.269Z,22.40
2022-11-26T05:33:49.460Z,23.92
2022-11-26T05:35:11.260Z,23.60
2022-11-26T05:36:32.458Z,24.52
2022-11-26T05:37:56.743Z,24.20
2022-11-26T05:39:17.793Z,24.45
2022-11-26T05:40:40.066Z,25.10
2022-11-26T05:42:06.191Z,25.48
2022-11-26T05:43:31.394Z,24.10
2022-11-26T05:44:52.332Z,24.75
2022-11-26T05:46:17.807Z,25.75
2022-11-26T05:47:38.727Z,24.70
2022-11-26T05:49:02.532Z,24.57
2022-11-26T05:50:24.855Z,25.70
2022-11-26T05:51:48.108Z,25.27
2022-11-26T05:53:10.548Z,26.45
2022-11-26T05:54:32.605Z,27.25
2022-11-26T05:55:53.979Z,25.92
2022-11-26T05:57:16.206Z,25.38
2022-11-26T05:58:37.567Z,26.33
2022-11-26T05:59:59.382Z,25.85
2022-11-26T06:02:43.431Z,23.02
2022-11-26T06:04:11.073Z,24.48
2022-11-26T06:05:33.330Z,27.35
2022-11-26T06:06:57.205Z,25.42
2022-11-26T06:08:24.787Z,26.73
2022-11-26T06:09:48.337Z,25.38
2022-11-26T06:11:13.015Z,24.67
2022-11-26T06:12:35.809Z,26.17
2022-11-26T06:13:58.008Z,26.23
2022-11-26T06:15:20.183Z,25.95
2022-11-26T06:16:42.191Z,25.80
2022-11-26T06:18:04.325Z,26.52
2022-11-26T06:19:30.985Z,27.85
2022-11-26T06:20:52.771Z,26.42
2022-11-26T06:22:15.049Z,26.40
2022-11-26T06:23:36.259Z,25.98
2022-11-26T06:24:58.437Z,22.88
2022-11-26T06:27:42.137Z,21.70
2022-11-26T06:29:04.593Z,24.02
2022-11-26T06:30:26.819Z,22.77
2022-11-26T06:31:49.190Z,23.77
2022-11-26T06:34:34.178Z,21.10
2022-11-26T06:36:02.133Z,22.88
2022-11-26T06:37:29.731Z,25.42
2022-11-26T06:38:51.814Z,23.35
2022-11-26T06:40:21.945Z,21.83
2022-11-26T06:41:43.927Z,23.55
2022-11-26T06:43:05.143Z,22.40
2022-11-26T06:44:27.577Z,22.02
2022-11-26T06:45:48.853Z,23.25
2022-11-26T06:47:12.223Z,22.52
2022-11-26T06:48:36.334Z,21.42
2022-11-26T06:50:00.197Z,22.67
2022-11-26T06:51:22.182Z,22.80
2022-11-26T06:54:11.627Z,22.20
2022-11-26T06:55:34.862Z,23.73
2022-11-26T06:56:57.455Z,23.45
2022-11-26T06:58:20.219Z,24.05
2022-11-26T06:59:42.245Z,23.83
2022-11-26T07:01:09.854Z,22.02
2022-11-26T07:02:35.631Z,22.85
2022-11-26T07:03:58.146Z,23.17
2022-11-26T07:05:27.909Z,23.30
2022-11-26T07:06:54.048Z,25.50
2022-11-26T07:08:17.425Z,23.85
2022-11-26T07:09:40.610Z,24.83
2022-11-26T07:11:04.647Z,24.27
2022-11-26T07:12:26.664Z,22.65
2022-11-26T07:13:51.156Z,24.15
2022-11-26T07:15:13.731Z,24.25
2022-11-26T07:16:36.225Z,23.52
2022-11-26T07:18:00.013Z,24.48
2022-11-26T07:19:21.982Z,25.75
2022-11-26T07:22:08.897Z,21.85
2022-11-26T07:23:29.768Z,23.38
2022-11-26T07:24:54.203Z,22.27
2022-11-26T07:26:18.722Z,23.55
2022-11-26T07:27:41.240Z,22.15
2022-11-26T07:29:03.275Z,22.13
2022-11-26T07:30:25.349Z,22.25
2022-11-26T07:31:47.574Z,20.10
2022-11-26T07:33:15.661Z,21.63
2022-11-26T07:34:37.797Z,21.08
2022-11-26T07:36:01.316Z,21.73
2022-11-26T07:37:23.491Z,21.80
2022-11-26T07:38:45.550Z,21.85
2022-11-26T07:40:09.365Z,20.52
2022-11-26T07:41:30.641Z,18.02
2022-11-26T07:42:53.430Z,18.02
2022-11-26T07:44:20.009Z,17.25
2022-11-26T07:45:42.287Z,18.17
2022-11-26T07:47:04.786Z,16.33
2022-11-26T07:48:29.180Z,16.35
2022-11-26T07:49:51.340Z,16.80
2022-11-26T07:52:40.671Z,16.60
2022-11-26T07:54:06.428Z,18.02
2022-11-26T07:55:28.199Z,16.38
2022-11-26T07:57:12.027Z,17.60
2022-11-26T07:58:34.066Z,17.23
2022-11-26T07:59:56.056Z,16.92
2022-11-26T08:01:21.348Z,16.00
2022-11-26T08:02:43.899Z,15.77
2022-11-26T08:04:07.815Z,14.82
2022-11-26T08:05:32.728Z,16.38
2022-11-26T08:06:56.126Z,15.32
2022-11-26T08:08:20.991Z,14.18
2022-11-26T08:09:49.383Z,14.18
2022-11-26T08:11:15.526Z,13.68
2022-11-26T08:12:37.724Z,15.73
2022-11-26T08:14:01.990Z,14.63
2022-11-26T08:15:23.855Z,14.70
2022-11-26T08:16:46.221Z,14.88
2022-11-26T08:18:07.171Z,13.70
2022-11-26T08:19:29.335Z,13.20
2022-11-26T08:20:57.029Z,14.13
2022-11-26T08:22:20.536Z,13.65
2022-11-26T08:23:42.809Z,13.68
2022-11-26T08:26:34.737Z,13.77
2022-11-26T08:27:59.389Z,14.98
2022-11-26T08:29:21.538Z,15.20
2022-11-26T08:30:43.969Z,13.85
2022-11-26T08:32:06.629Z,15.30
2022-11-26T08:33:29.145Z,14.95
2022-11-26T08:34:54.868Z,13.88
2022-11-26T08:37:38.682Z,13.57
2022-11-26T08:39:01.820Z,14.10
2022-11-26T08:40:23.790Z,16.98
2022-11-26T08:43:14.075Z,17.92
2022-11-26T08:44:38.375Z,16.85
2022-11-26T08:46:03.970Z,15.90
2022-11-26T08:47:26.178Z,15.40
2022-11-26T08:50:24.006Z,11.70
2022-11-26T08:51:48.222Z,14.10
2022-11-26T08:53:12.094Z,13.27
2022-11-26T08:54:45.268Z,12.60
2022-11-26T08:56:14.804Z,13.50
2022-11-26T08:57:37.030Z,11.93
2022-11-26T09:00:21.767Z,12.00
2022-11-26T09:01:42.869Z,12.70
2022-11-26T09:03:05.268Z,13.68
2022-11-26T09:04:27.677Z,15.45
2022-11-26T09:05:49.927Z,15.05
2022-11-26T09:07:14.414Z,14.20
2022-11-26T09:09:05.408Z,12.98
2022-11-26T09:10:27.655Z,10.55
2022-11-26T09:11:54.639Z,9.57
2022-11-26T09:13:28.815Z,8.57
2022-11-26T09:14:53.795Z,9.25
2022-11-26T09:16:23.093Z,8.25
2022-11-26T09:17:52.476Z,8.82
2022-11-26T09:19:18.013Z,8.88
2022-11-26T09:20:40.253Z,8.70
2022-11-26T09:22:02.727Z,10.00
2022-11-26T09:23:25.018Z,8.88
2022-11-26T09:24:51.192Z,9.18
2022-11-26T09:26:13.082Z,8.77
2022-11-26T09:27:37.800Z,7.75
2022-11-26T09:29:00.251Z,6.82
2022-11-26T09:30:22.404Z,6.88
2022-11-26T09:32:15.541Z,7.05
2022-11-26T09:33:28.318Z,7.43
2022-11-26T09:34:50.290Z,7.68
2022-11-26T09:36:15.024Z,7.60
2022-11-26T09:37:37.147Z,7.38
2022-11-26T09:40:28.515Z,7.75
2022-11-26T09:41:54.244Z,7.53
2022-11-26T09:43:26.523Z,7.97
2022-11-26T09:46:23.496Z,7.97
2022-11-26T09:47:53.542Z,8.10
2022-11-26T09:49:16.127Z,8.73
2022-11-26T09:50:38.926Z,9.45
2022-11-26T09:52:09.041Z,7.85
2022-11-26T09:53:36.713Z,8.68
2022-11-26T09:55:15.718Z,8.27
2022-11-26T09:56:41.744Z,8.05
2022-11-26T09:58:16.130Z,8.70
2022-11-26T09:59:39.728Z,8.00
2022-11-26T10:01:05.470Z,7.97
2022-11-26T10:02:27.519Z,8.10
2022-11-26T10:03:50.147Z,13.23
2022-11-26T10:05:15.924Z,6.95
2022-11-26T10:06:52.267Z,7.05
2022-11-26T10:08:36.337Z,6.80
2022-11-26T10:10:09.511Z,6.68
2022-11-26T10:11:37.284Z,6.65
2022-11-26T10:13:19.768Z,6.18
2022-11-26T10:14:58.404Z,6.03
2022-11-26T10:16:31.317Z,5.70
2022-11-26T10:18:04.472Z,5.93
2022-11-26T10:19:31.675Z,5.80
2022-11-26T10:21:14.933Z,5.25
2022-11-26T10:22:41.361Z,5.40
2022-11-26T10:24:10.583Z,5.28
2022-11-26T10:25:42.366Z,5.22
2022-11-26T10:27:15.958Z,5.85
2022-11-26T10:28:45.372Z,8.85
2022-11-26T10:30:18.629Z,7.00
2022-11-26T10:31:48.745Z,7.15
2022-11-26T10:33:53.159Z,6.53
2022-11-26T10:37:09.584Z,6.50
2022-11-26T10:38:37.142Z,6.80
2022-11-26T10:41:39.467Z,6.25
2022-11-26T10:45:33.248Z,7.03
2022-11-26T10:47:02.320Z,7.40
2022-11-26T10:48:27.552Z,8.10
2022-11-26T10:49:49.353Z,7.18
2022-11-26T10:51:29.257Z,9.05
2022-11-26T10:53:22.614Z,10.07
2022-11-26T10:54:45.147Z,8.85
2022-11-26T10:56:08.436Z,10.50
2022-11-26T10:57:30.562Z,12.20
2022-11-26T10:59:00.419Z,10.27
2022-11-26T11:00:46.293Z,12.73
2022-11-26T11:02:27.918Z,12.40
2022-11-26T11:04:11.535Z,16.25
2022-11-26T11:05:34.666Z,17.45
2022-11-26T11:06:56.640Z,16.38
2022-11-26T11:08:31.336Z,17.67
2022-11-26T11:10:03.780Z,15.23
2022-11-26T11:11:28.587Z,14.07
2022-11-26T11:12:52.171Z,15.50
2022-11-26T11:14:29.607Z,15.10
2022-11-26T11:16:02.744Z,14.75
2022-11-26T11:17:34.723Z,15.70
2022-11-26T11:18:58.721Z,13.23
2022-11-26T11:20:30.841Z,14.10
2022-11-26T11:23:40.065Z,16.05
2022-11-26T11:25:06.269Z,18.08
2022-11-26T11:26:28.519Z,17.85
2022-11-26T11:27:50.010Z,16.45
2022-11-26T11:29:34.084Z,18.00
2022-11-26T11:31:06.401Z,16.63
2022-11-26T11:32:37.037Z,17.88
2022-11-26T11:34:14.326Z,17.67
2022-11-26T11:35:35.822Z,17.40
2022-11-26T11:37:02.760Z,18.02
2022-11-26T11:38:27.089Z,18.23
2022-11-26T11:40:04.789Z,19.10
2022-11-26T11:41:31.098Z,18.58
2022-11-26T11:42:54.949Z,20.60
2022-11-26T11:44:21.047Z,22.20
2022-11-26T11:45:52.960Z,21.27
2022-11-26T11:47:34.367Z,22.30
2022-11-26T11:49:09.498Z,21.92
2022-11-26T11:50:35.298Z,21.50
2022-11-26T11:52:13.209Z,22.05
2022-11-26T11:53:47.069Z,22.52
2022-11-26T11:55:22.904Z,22.33
2022-11-26T11:56:52.735Z,23.52
2022-11-26T11:58:39.467Z,23.77
2022-11-26T12:00:13.658Z,23.25
2022-11-26T12:01:59.898Z,24.17
2022-11-26T12:03:49.924Z,25.63
2022-11-26T12:05:58.003Z,25.08
2022-11-26T12:07:36.099Z,24.30
2022-11-26T12:09:09.364Z,26.88
2022-11-26T12:10:41.130Z,26.75
2022-11-26T12:12:12.030Z,27.40
2022-11-26T12:13:42.723Z,28.85
2022-11-26T12:15:13.174Z,29.25
2022-11-26T12:16:40.329Z,29.25
2022-11-26T12:18:16.735Z,30.80
2022-11-26T12:19:46.422Z,29.33
2022-11-26T12:21:13.359Z,29.63
2022-11-26T12:22:41.805Z,30.05
2022-11-26T12:24:08.526Z,29.00
2022-11-26T12:25:36.848Z,30.20
2022-11-26T12:27:04.768Z,29.92
2022-11-26T12:28:30.453Z,29.20
2022-11-26T12:29:57.504Z,28.40
2022-11-26T12:31:26.242Z,28.15
2022-11-26T12:32:55.115Z,27.58
2022-11-26T12:34:30.474Z,27.90
2022-11-26T12:35:56.760Z,30.92
2022-11-26T12:37:25.549Z,30.60
2022-11-26T12:38:53.508Z,29.40
2022-11-26T12:40:34.500Z,29.92
2022-11-26T12:42:01.426Z,29.00
2022-11-26T12:43:31.205Z,30.00
2022-11-26T12:44:54.724Z,28.80
2022-11-26T12:46:21.042Z,27.50
2022-11-26T12:47:50.651Z,28.10
2022-11-26T12:49:23.559Z,29.08
2022-11-26T12:50:53.202Z,28.27
2022-11-26T12:52:32.268Z,26.85
2022-11-26T12:54:04.304Z,25.65
2022-11-26T12:55:33.000Z,26.73
2022-11-26T12:57:01.395Z,28.25
2022-11-26T12:58:30.233Z,26.38
2022-11-26T12:59:59.971Z,28.38
2022-11-26T13:01:24.365Z,26.58
2022-11-26T13:02:49.867Z,25.75
2022-11-26T13:04:36.744Z,33.20
2022-11-26T13:06:01.977Z,28.63
2022-11-26T13:07:39.863Z,26.30
2022-11-26T13:09:10.570Z,24.02
2022-11-26T13:10:42.416Z,24.70
2022-11-26T13:12:11.962Z,26.02
2022-11-26T13:13:43.293Z,25.45
2022-11-26T13:15:15.817Z,25.73
2022-11-26T13:16:52.888Z,23.35
2022-11-26T13:18:22.477Z,23.90
2022-11-26T13:19:49.062Z,24.45
2022-11-26T13:21:26.930Z,23.73
2022-11-26T13:23:05.414Z,25.63
2022-11-26T13:24:41.251Z,24.83
2022-11-26T13:26:13.397Z,25.23
2022-11-26T13:27:50.357Z,23.67
2022-11-26T13:29:40.580Z,24.92
2022-11-26T13:31:17.312Z,25.48
2022-11-26T13:33:36.330Z,23.70
2022-11-26T13:35:15.949Z,26.05
2022-11-26T13:37:08.481Z,25.08
2022-11-26T13:38:44.508Z,24.52
2022-11-26T13:40:38.466Z,24.52
2022-11-26T13:42:22.146Z,24.75
2022-11-26T13:44:10.983Z,26.65
2022-11-26T13:46:02.110Z,27.15
2022-11-26T13:47:28.179Z,23.48
2022-11-26T13:48:57.045Z,24.67
2022-11-26T13:50:23.059Z,26.10
2022-11-26T13:51:50.444Z,25.55
2022-11-26T13:53:17.181Z,24.75
2022-11-26T13:54:46.939Z,26.85
2022-11-26T13:56:10.935Z,27.02
2022-11-26T13:57:41.519Z,27.17
2022-11-26T13:59:14.846Z,28.50
2022-11-26T14:00:37.551Z,25.52
2022-11-26T14:02:00.029Z,27.27
2022-11-26T14:03:44.771Z,27.88
2022-11-26T14:05:09.211Z,27.88
2022-11-26T14:06:32.444Z,27.05
2022-11-26T14:08:29.382Z,27.20
2022-11-26T14:09:55.897Z,25.10
2022-11-26T14:11:54.529Z,26.40
2022-11-26T14:13:19.877Z,26.52
2022-11-26T14:14:44.974Z,24.83
2022-11-26T14:16:10.085Z,26.10
2022-11-26T14:18:16.087Z,25.55
2022-11-26T14:20:17.017Z,25.30
2022-11-26T14:22:06.992Z,25.40
2022-11-26T14:23:58.598Z,25.42
2022-11-26T14:25:39.667Z,25.15
2022-11-26T14:27:00.449Z,26.45
2022-11-26T14:28:24.459Z,24.73
2022-11-26T14:29:47.223Z,25.13
2022-11-26T14:31:15.772Z,25.42
2022-11-26T14:32:41.936Z,25.33
2022-11-26T14:34:11.280Z,25.55
2022-11-26T14:35:40.966Z,23.50
2022-11-26T14:37:04.805Z,23.92
2022-11-26T14:38:35.556Z,23.83
2022-11-26T14:40:01.266Z,23.75
2022-11-26T14:41:25.195Z,24.42
2022-11-26T14:42:47.372Z,23.63
2022-11-26T14:44:13.657Z,23.42
2022-11-26T14:45:39.479Z,24.33
2022-11-26T14:47:13.475Z,23.80
2022-11-26T14:48:43.822Z,22.80
2022-11-26T14:50:08.942Z,23.85
2022-11-26T14:51:32.784Z,23.98
2022-11-26T14:53:02.473Z,24.35
2022-11-26T14:54:31.271Z,24.92
2022-11-26T14:55:54.565Z,24.50
2022-11-26T14:57:21.173Z,24.10
2022-11-26T14:58:47.341Z,23.08
2022-11-26T15:00:23.656Z,23.02
2022-11-26T15:01:47.301Z,23.45
2022-11-26T15:03:24.218Z,23.38
2022-11-26T15:04:46.241Z,23.40
2022-11-26T15:06:08.870Z,24.80
2022-11-26T15:07:31.937Z,24.85
2022-11-26T15:09:06.191Z,23.90
2022-11-26T15:10:32.146Z,24.05
2022-11-26T15:12:02.953Z,24.90
2022-11-26T15:13:29.396Z,24.00
2022-11-26T15:14:54.812Z,24.40
2022-11-26T15:16:31.357Z,24.45
2022-11-26T15:17:57.802Z,25.55
2022-11-26T15:19:21.162Z,24.27
2022-11-26T15:20:43.340Z,23.52
2022-11-26T15:23:36.790Z,23.38
2022-11-26T15:25:03.369Z,25.33
2022-11-26T15:26:28.507Z,24.55
2022-11-26T15:27:56.683Z,24.58
2022-11-26T15:29:37.389Z,24.17
2022-11-26T15:31:01.783Z,25.02
2022-11-26T15:32:27.501Z,25.30
2022-11-26T15:33:50.977Z,24.23
2022-11-26T15:35:17.873Z,24.38
2022-11-26T15:36:43.164Z,25.50
2022-11-26T15:38:17.848Z,23.60
2022-11-26T15:39:39.824Z,23.42
2022-11-26T15:41:10.120Z,24.52
2022-11-26T15:42:32.526Z,25.23
2022-11-26T15:43:59.009Z,25.27
2022-11-26T15:45:25.138Z,24.35
2022-11-26T15:46:53.102Z,24.60
2022-11-26T15:48:50.073Z,25.65
2022-11-26T15:50:28.619Z,25.05
2022-11-26T15:51:54.848Z,23.23
2022-11-26T15:53:19.998Z,26.50
2022-11-26T15:55:12.132Z,26.17
2022-11-26T15:56:40.124Z,26.17
2022-11-26T15:58:06.354Z,26.55
2022-11-26T15:59:31.788Z,27.63
2022-11-26T16:00:57.171Z,26.75
2022-11-26T16:02:22.197Z,26.35
2022-11-26T16:03:48.859Z,27.85
2022-11-26T16:05:24.451Z,27.15
2022-11-26T16:06:46.671Z,28.23
2022-11-26T16:08:25.854Z,27.20
2022-11-26T16:09:54.375Z,26.00
2022-11-26T16:11:23.896Z,30.38
2022-11-26T16:13:19.193Z,36.70
2022-11-26T16:14:45.334Z,31.33
2022-11-26T16:16:16.392Z,30.85
2022-11-26T16:17:39.048Z,31.60
2022-11-26T16:19:04.482Z,29.85
2022-11-26T16:20:34.232Z,29.15
2022-11-26T16:21:57.890Z,32.15
2022-11-26T16:23:25.693Z,32.30
2022-11-26T16:25:01.466Z,31.95
2022-11-26T16:26:23.495Z,30.75
2022-11-26T16:28:03.859Z,30.77
2022-11-26T16:29:46.689Z,29.13
2022-11-26T16:31:24.933Z,30.05
2022-11-26T16:32:49.205Z,30.00
2022-11-26T16:34:11.392Z,30.05
2022-11-26T16:35:49.664Z,29.02
2022-11-26T16:37:21.397Z,28.60
2022-11-26T16:38:43.361Z,31.70
2022-11-26T16:40:15.373Z,29.52
2022-11-26T16:41:37.457Z,30.67
2022-11-26T16:42:58.481Z,29.70
2022-11-26T16:44:20.361Z,30.73
2022-11-26T16:45:42.761Z,31.83
2022-11-26T16:47:23.931Z,30.88
2022-11-26T16:48:51.057Z,31.05
2022-11-26T16:50:23.812Z,34.40
2022-11-26T16:52:07.653Z,33.45
2022-11-26T16:53:45.061Z,33.90
2022-11-26T16:55:17.599Z,36.03
2022-11-26T16:56:56.016Z,37.47
2022-11-26T16:58:28.245Z,37.28
2022-11-26T17:00:16.912Z,38.22
2022-11-26T17:01:42.015Z,40.05
2022-11-26T17:03:33.250Z,39.22
2022-11-26T17:04:58.016Z,39.58
2022-11-26T17:06:31.216Z,39.97
2022-11-26T17:08:04.827Z,40.25
2022-11-26T17:09:27.014Z,39.95
2022-11-26T17:10:50.999Z,39.65
2022-11-26T17:12:17.771Z,42.90
2022-11-26T17:13:40.253Z,43.78
2022-11-26T17:15:02.612Z,42.22
2022-11-26T17:16:26.391Z,41.42
2022-11-26T17:17:48.898Z,42.45
2022-11-26T17:20:37.265Z,43.75
2022-11-26T17:21:59.485Z,44.85
2022-11-26T17:23:21.889Z,46.63
2022-11-26T17:24:44.036Z,44.78
2022-11-26T17:26:16.738Z,45.88
2022-11-26T17:27:39.356Z,44.88
2022-11-26T17:29:02.305Z,46.67
2022-11-26T17:30:25.782Z,46.10
2022-11-26T17:31:47.792Z,44.70
2022-11-26T17:33:10.565Z,52.95
2022-11-26T17:34:33.687Z,50.28
2022-11-26T17:35:55.603Z,48.08
2022-11-26T17:37:24.155Z,47.67
2022-11-26T17:38:46.928Z,48.75
2022-11-26T17:40:17.554Z,50.88
2022-11-26T17:41:39.597Z,53.72
2022-11-26T17:43:02.111Z,50.88
2022-11-26T17:44:24.804Z,49.30
2022-11-26T17:45:46.766Z,50.08
2022-11-26T17:47:17.728Z,45.67
2022-11-26T17:48:43.310Z,45.33
2022-11-26T17:50:08.768Z,44.55
2022-11-26T17:51:30.731Z,48.70
2022-11-26T17:52:58.500Z,48.70
2022-11-26T17:54:20.800Z,49.03
2022-11-26T17:55:42.999Z,47.08
2022-11-26T17:57:05.498Z,49.13
2022-11-26T17:58:30.734Z,47.83
2022-11-26T17:59:57.914Z,63.00
2022-11-26T18:01:22.829Z,49.42
2022-11-26T18:02:55.272Z,47.30
2022-11-26T18:04:20.529Z,49.03
2022-11-26T18:06:11.945Z,49.03
2022-11-26T18:08:09.191Z,48.28
2022-11-26T18:09:39.686Z,48.03
2022-11-26T18:11:08.192Z,51.42
2022-11-26T18:12:35.657Z,49.35
2022-11-26T18:14:03.703Z,53.30
2022-11-26T18:15:31.417Z,53.80
2022-11-26T18:16:59.012Z,51.13
2022-11-26T18:18:29.523Z,51.33
2022-11-26T18:20:05.754Z,51.60
2022-11-26T18:21:35.313Z,59.70
2022-11-26T18:23:12.941Z,59.75
2022-11-26T18:25:09.726Z,58.03
2022-11-26T18:26:50.881Z,55.67
2022-11-26T18:28:25.461Z,55.55
2022-11-26T18:29:52.631Z,57.42
2022-11-26T18:31:15.541Z,58.63
2022-11-26T18:32:38.817Z,52.65
2022-11-26T18:34:06.831Z,54.67
2022-11-26T18:35:33.533Z,51.95
2022-11-26T18:37:00.187Z,51.72
2022-11-26T18:38:29.145Z,54.35
2022-11-26T18:39:57.626Z,51.30
2022-11-26T18:41:22.972Z,55.55
2022-11-26T18:42:46.118Z,60.47
2022-11-26T18:44:11.531Z,55.72
2022-11-26T18:45:36.196Z,55.78
2022-11-26T18:47:09.221Z,54.65
2022-11-26T18:48:38.152Z,57.95
2022-11-26T18:50:00.421Z,55.45
2022-11-26T18:51:23.022Z,56.83
2022-11-26T18:52:47.011Z,58.60
2022-11-26T18:54:10.426Z,58.60
2022-11-26T18:55:32.624Z,62.45
2022-11-26T18:57:00.886Z,57.55
2022-11-26T18:58:26.594Z,58.83
2022-11-26T18:59:50.787Z,59.35
2022-11-26T19:01:15.037Z,56.67
2022-11-26T19:02:40.000Z,56.75
2022-11-26T19:04:02.603Z,58.92
2022-11-26T19:05:29.310Z,58.35
2022-11-26T19:06:51.933Z,53.67
2022-11-26T19:10:07.406Z,55.95
2022-11-26T19:11:31.645Z,55.25
2022-11-26T19:12:54.139Z,55.13
2022-11-26T19:14:17.717Z,53.15
2022-11-26T19:15:42.397Z,56.83
2022-11-26T19:17:04.335Z,55.45
2022-11-26T19:18:30.451Z,57.72
2022-11-26T19:19:53.962Z,59.03
2022-11-26T19:21:21.022Z,58.60
2022-11-26T19:22:44.811Z,58.00
2022-11-26T19:24:08.986Z,58.42
2022-11-26T19:25:32.240Z,58.15
2022-11-26T19:26:54.206Z,57.28
2022-11-26T19:29:38.523Z,53.00
2022-11-26T19:31:01.913Z,56.60
2022-11-26T19:32:24.809Z,55.25
2022-11-26T19:33:47.842Z,57.70
2022-11-26T19:35:11.077Z,57.85
2022-11-26T19:36:34.008Z,57.40
2022-11-26T19:37:56.123Z,60.70
2022-11-26T19:39:19.952Z,57.75